createdAt,value
2023-08-25T00:01:20.727Z,98670.64
2023-08-25T00:04:33.367Z,98689.73
2023-08-25T00:07:45.561Z,98687.41
2023-08-25T00:10:57.743Z,98672.31
2023-08-25T00:14:10.079Z,98672.98
2023-08-25T00:17:22.876Z,98667.67
2023-08-25T00:20:35.005Z,98670.26
2023-08-25T00:23:47.287Z,98681.02
2023-08-25T00:26:59.951Z,98670.16
2023-08-25T00:30:14.214Z,98660.85
2023-08-25T00:33:26.894Z,98648.19
2023-08-25T00:36:39.945Z,98651.17
2023-08-25T00:39:52.534Z,98650.47
2023-08-25T00:43:04.671Z,98657.20
2023-08-25T00:46:18.404Z,98647.66
2023-08-25T00:49:32.582Z,98639.61
2023-08-25T00:52:45.831Z,98641.26
2023-08-25T00:56:00.193Z,98638.64
2023-08-25T00:59:13.227Z,98646.30
2023-08-25T01:02:25.975Z,98643.45
2023-08-25T01:05:40.857Z,98641.19
2023-08-25T01:08:53.775Z,98642.79
2023-08-25T01:12:13.565Z,98641.90
2023-08-25T01:15:31.960Z,98640.38
2023-08-25T01:18:47.443Z,98625.35
2023-08-25T01:22:03.150Z,98629.24
2023-08-25T01:25:35.950Z,98621.70
2023-08-25T01:28:49.961Z,98624.11
2023-08-25T01:32:02.142Z,98614.90
2023-08-25T01:35:16.372Z,98605.64
2023-08-25T01:38:35.064Z,98613.89
2023-08-25T01:41:52.410Z,98608.77
2023-08-25T01:45:05.627Z,98617.58
2023-08-25T01:48:20.805Z,98616.78
2023-08-25T01:51:36.039Z,98613.09
2023-08-25T01:54:49.317Z,98612.48
2023-08-25T01:58:02.003Z,98617.30
2023-08-25T02:01:14.462Z,98606.48
2023-08-25T02:04:27.186Z,98597.14
2023-08-25T02:07:39.577Z,98604.16
2023-08-25T02:10:53.483Z,98605.84
2023-08-25T02:14:05.939Z,98610.80
2023-08-25T02:17:18.431Z,98614.13
2023-08-25T02:20:30.973Z,98605.44
2023-08-25T02:23:43.532Z,98594.33
2023-08-25T02:26:55.726Z,98591.61
2023-08-25T02:30:08.787Z,98590.55
2023-08-25T02:33:22.335Z,98587.88
2023-08-25T02:36:34.818Z,98579.59
2023-08-25T02:39:47.295Z,98563.01
2023-08-25T02:43:00.942Z,98557.43
2023-08-25T02:46:13.514Z,98554.10
2023-08-25T02:49:26.037Z,98554.27
2023-08-25T02:52:38.431Z,98538.98
2023-08-25T02:55:51.603Z,98543.98
2023-08-25T02:59:03.832Z,98548.95
2023-08-25T03:02:16.467Z,98560.70
2023-08-25T03:05:29.168Z,98557.83
2023-08-25T03:08:43.298Z,98560.28
2023-08-25T03:11:55.822Z,98559.09
2023-08-25T03:15:08.511Z,98556.61
2023-08-25T03:18:21.628Z,98555.31
2023-08-25T03:21:34.283Z,98561.68
2023-08-25T03:24:46.610Z,98563.63
2023-08-25T03:28:00.956Z,98558.20
2023-08-25T03:31:13.727Z,98559.20
2023-08-25T03:34:26.473Z,98551.50
2023-08-25T03:37:39.040Z,98561.03
2023-08-25T03:40:51.821Z,98565.64
2023-08-25T03:44:04.347Z,98574.59
2023-08-25T03:47:16.761Z,98578.11
2023-08-25T03:50:29.771Z,98580.34
2023-08-25T03:53:42.792Z,98561.33
2023-08-25T03:56:55.115Z,98574.09
2023-08-25T04:00:09.110Z,98577.77
2023-08-25T04:03:23.599Z,98573.59
2023-08-25T04:06:38.383Z,98574.73
2023-08-25T04:09:50.684Z,98566.56
2023-08-25T04:13:03.385Z,98558.19
2023-08-25T04:16:16.274Z,98559.47
2023-08-25T04:19:30.674Z,98572.02
2023-08-25T04:22:43.069Z,98573.94
2023-08-25T04:25:55.828Z,98567.05
2023-08-25T04:29:10.274Z,98569.89
2023-08-25T04:32:24.026Z,98568.67
2023-08-25T04:35:38.082Z,98552.50
2023-08-25T04:38:51.150Z,98537.25
2023-08-25T04:42:04.565Z,98538.88
2023-08-25T04:45:19.520Z,98540.20
2023-08-25T04:48:31.949Z,98542.91
2023-08-25T04:51:44.470Z,98547.91
2023-08-25T04:54:57.050Z,98553.62
2023-08-25T04:58:10.803Z,98550.93
2023-08-25T05:01:23.329Z,98540.48
2023-08-25T05:04:35.849Z,98534.95
2023-08-25T05:07:48.936Z,98530.57
2023-08-25T05:11:01.345Z,98529.16
2023-08-25T05:14:13.669Z,98521.51
2023-08-25T05:17:27.382Z,98526.44
2023-08-25T05:20:41.423Z,98521.14
2023-08-25T05:23:54.622Z,98525.05
2023-08-25T05:27:06.916Z,98521.42
2023-08-25T05:30:20.964Z,98518.73
2023-08-25T05:33:34.165Z,98499.94
2023-08-25T05:37:00.848Z,98501.82
2023-08-25T05:40:18.191Z,98499.38
2023-08-25T05:43:32.575Z,98494.63
2023-08-25T05:46:46.439Z,98489.22
2023-08-25T05:49:58.599Z,98494.61
2023-08-25T05:53:12.088Z,98484.26
2023-08-25T05:56:26.765Z,98483.42
2023-08-25T05:59:40.636Z,98488.59
2023-08-25T06:02:53.021Z,98490.67
2023-08-25T06:06:05.678Z,98478.80
2023-08-25T06:09:19.187Z,98479.42
2023-08-25T06:12:31.346Z,98475.29
2023-08-25T06:15:43.780Z,98464.91
2023-08-25T06:18:56.446Z,98453.91
2023-08-25T06:22:10.750Z,98457.02
2023-08-25T06:25:23.759Z,98461.13
2023-08-25T06:28:36.705Z,98450.77
2023-08-25T06:31:49.159Z,98445.38
2023-08-25T06:35:01.595Z,98446.17
2023-08-25T06:38:14.229Z,98455.26
2023-08-25T06:41:26.525Z,98445.69
2023-08-25T06:44:39.065Z,98439.91
2023-08-25T06:47:52.625Z,98434.51
2023-08-25T06:51:05.262Z,98436.13
2023-08-25T06:54:17.564Z,98433.03
2023-08-25T06:57:30.046Z,98432.55
2023-08-25T07:00:42.414Z,98426.38
2023-08-25T07:03:54.594Z,98418.84
2023-08-25T07:07:08.411Z,98415.27
2023-08-25T07:10:21.525Z,98405.77
2023-08-25T07:13:34.462Z,98405.54
2023-08-25T07:16:47.057Z,98397.77
2023-08-25T07:19:59.814Z,98396.51
2023-08-25T07:23:12.743Z,98399.98
2023-08-25T07:26:26.962Z,98395.50
2023-08-25T07:29:42.256Z,98386.72
2023-08-25T07:32:57.276Z,98394.16
2023-08-25T07:36:12.508Z,98402.05
2023-08-25T07:39:25.232Z,98394.41
2023-08-25T07:42:37.768Z,98392.25
2023-08-25T07:45:50.020Z,98396.73
2023-08-25T07:49:02.406Z,98402.99
2023-08-25T07:52:14.788Z,98395.20
2023-08-25T07:55:28.100Z,98402.51
2023-08-25T07:58:40.396Z,98396.73
2023-08-25T08:01:52.738Z,98406.05
2023-08-25T08:05:05.557Z,98414.17
2023-08-25T08:08:18.220Z,98412.05
2023-08-25T08:11:30.561Z,98387.38
2023-08-25T08:14:46.549Z,98428.32
2023-08-25T08:17:57.506Z,98430.89
2023-08-25T08:21:10.160Z,98428.17
2023-08-25T08:24:29.336Z,98428.95
2023-08-25T08:27:37.524Z,98437.88
2023-08-25T08:30:49.948Z,98433.17
2023-08-25T08:34:02.414Z,98436.26
2023-08-25T08:37:14.977Z,98428.47
2023-08-25T08:40:30.241Z,98420.20
2023-08-25T08:43:45.669Z,98408.52
2023-08-25T08:46:59.163Z,98417.61
2023-08-25T08:50:13.796Z,98415.98
2023-08-25T08:53:26.311Z,98430.00
2023-08-25T08:56:40.585Z,98422.92
2023-08-25T08:59:53.813Z,98420.67
2023-08-25T09:03:09.629Z,98425.82
2023-08-25T09:06:22.396Z,98404.36
2023-08-25T09:09:34.705Z,98399.02
2023-08-25T09:12:47.119Z,98405.48
2023-08-25T09:16:00.753Z,98408.38
2023-08-25T09:19:14.066Z,98397.33
2023-08-25T09:22:26.983Z,98398.98
2023-08-25T09:25:39.545Z,98392.88
2023-08-25T09:28:51.865Z,98389.86
2023-08-25T09:32:04.074Z,98391.42
2023-08-25T09:35:24.277Z,98400.53
2023-08-25T09:38:45.547Z,98395.73
2023-08-25T09:41:53.110Z,98399.34
2023-08-25T09:45:10.700Z,98392.98
2023-08-25T09:48:23.674Z,98388.88
2023-08-25T09:51:43.095Z,98383.28
2023-08-25T09:54:56.762Z,98386.27
2023-08-25T09:58:10.601Z,98379.82
2023-08-25T10:01:23.698Z,98371.38
2023-08-25T10:04:36.340Z,98382.88
2023-08-25T10:07:50.205Z,98372.28
2023-08-25T10:11:04.378Z,98377.02
2023-08-25T10:14:19.216Z,98380.04
2023-08-25T10:17:32.486Z,98372.05
2023-08-25T10:20:46.768Z,98374.76
2023-08-25T10:24:00.827Z,98365.25
2023-08-25T10:27:14.942Z,98351.08
2023-08-25T10:30:29.293Z,98340.49
2023-08-25T10:33:56.790Z,98343.77
2023-08-25T10:37:18.001Z,98341.94
2023-08-25T10:40:46.694Z,98333.77
2023-08-25T10:44:01.560Z,98342.70
2023-08-25T10:47:14.351Z,98337.05
2023-08-25T10:50:31.827Z,98334.14
2023-08-25T10:53:47.684Z,98330.70
2023-08-25T10:57:00.036Z,98329.80
2023-08-25T11:00:40.698Z,98326.14
2023-08-25T11:04:09.687Z,98327.06
2023-08-25T11:07:42.739Z,98334.61
2023-08-25T11:10:57.721Z,98334.08
2023-08-25T11:14:10.288Z,98338.52
2023-08-25T11:17:22.633Z,98342.45
2023-08-25T11:20:35.968Z,98341.50
2023-08-25T11:23:50.372Z,98349.63
2023-08-25T11:27:02.992Z,98335.31
2023-08-25T11:30:19.545Z,98340.52
2023-08-25T11:33:32.035Z,98333.45
2023-08-25T11:36:44.755Z,98323.50
2023-08-25T11:39:57.126Z,98314.00
2023-08-25T11:43:09.838Z,98311.06
2023-08-25T11:46:23.173Z,98327.36
2023-08-25T11:49:38.270Z,98328.62
2023-08-25T11:52:50.903Z,98319.39
2023-08-25T11:56:13.160Z,98307.42
2023-08-25T11:59:28.975Z,98320.39
2023-08-25T12:02:41.993Z,98309.29
2023-08-25T12:05:56.068Z,98323.86
2023-08-25T12:09:08.880Z,98319.77
2023-08-25T12:12:21.176Z,98325.37
2023-08-25T12:15:36.087Z,98318.31
2023-08-25T12:18:49.690Z,98320.56
2023-08-25T12:22:03.004Z,98321.95
2023-08-25T12:25:16.087Z,98316.59
2023-08-25T12:28:28.384Z,98318.84
2023-08-25T12:31:40.601Z,98314.03
2023-08-25T12:34:52.857Z,98303.05
2023-08-25T12:38:05.030Z,98307.44
2023-08-25T12:41:17.190Z,98310.45
2023-08-25T12:44:29.750Z,98301.05
2023-08-25T12:47:41.976Z,98299.70
2023-08-25T12:50:54.435Z,98300.91
2023-08-25T12:54:07.674Z,98299.75
2023-08-25T12:57:19.839Z,98301.69
2023-08-25T13:00:32.299Z,98291.36
2023-08-25T13:03:44.740Z,98292.52
2023-08-25T13:06:57.039Z,98288.06
2023-08-25T13:10:11.344Z,98300.98
2023-08-25T13:13:23.662Z,98295.61
2023-08-25T13:16:36.578Z,98293.22
2023-08-25T13:19:48.812Z,98284.86
2023-08-25T13:23:01.232Z,98285.48
2023-08-25T13:26:13.572Z,98279.97
2023-08-25T13:29:25.976Z,98272.81
2023-08-25T13:32:38.264Z,98274.45
2023-08-25T13:35:52.627Z,98271.00
2023-08-25T13:39:05.094Z,98259.67
2023-08-25T13:42:17.784Z,98271.59
2023-08-25T13:45:30.222Z,98272.93
2023-08-25T13:48:42.609Z,98264.75
2023-08-25T13:51:55.065Z,98275.92
2023-08-25T13:55:08.246Z,98270.15
2023-08-25T13:58:21.601Z,98279.75
2023-08-25T14:01:33.815Z,98277.58
2023-08-25T14:04:46.546Z,98268.56
2023-08-25T14:07:59.030Z,98267.81
2023-08-25T14:11:11.803Z,98278.78
2023-08-25T14:14:24.028Z,98278.61
2023-08-25T14:17:36.299Z,98266.70
2023-08-25T14:20:48.972Z,98271.72
2023-08-25T14:24:01.881Z,98281.02
2023-08-25T14:27:14.379Z,98270.42
2023-08-25T14:30:26.700Z,98263.47
2023-08-25T14:33:38.904Z,98269.39
2023-08-25T14:36:51.558Z,98270.18
2023-08-25T14:40:04.287Z,98272.69
2023-08-25T14:43:16.664Z,98270.83
2023-08-25T14:46:30.901Z,98267.50
2023-08-25T14:49:44.198Z,98263.61
2023-08-25T14:52:56.307Z,98270.87
2023-08-25T14:56:09.343Z,98278.14
2023-08-25T14:59:21.422Z,98272.69
2023-08-25T15:02:34.199Z,98277.66
2023-08-25T15:05:46.484Z,98278.48
2023-08-25T15:08:59.473Z,98283.59
2023-08-25T15:12:13.075Z,98279.61
2023-08-25T15:15:25.239Z,98274.87
2023-08-25T15:18:37.815Z,98280.00
2023-08-25T15:21:49.954Z,98285.27
2023-08-25T15:25:02.189Z,98287.00
2023-08-25T15:28:14.507Z,98282.38
2023-08-25T15:31:26.732Z,98292.03
2023-08-25T15:34:39.999Z,98291.08
2023-08-25T15:37:52.528Z,98294.02
2023-08-25T15:41:08.817Z,98295.81
2023-08-25T15:44:21.198Z,98298.56
2023-08-25T15:47:35.361Z,98287.98
2023-08-25T15:50:53.202Z,98290.43
2023-08-25T15:54:05.285Z,98286.97
2023-08-25T15:57:18.406Z,98288.63
2023-08-25T16:00:31.899Z,98288.99
2023-08-25T16:03:44.084Z,98291.56
2023-08-25T16:06:56.633Z,98297.09
2023-08-25T16:10:09.341Z,98299.84
2023-08-25T16:13:21.530Z,98298.47
2023-08-25T16:16:33.814Z,98285.06
2023-08-25T16:19:46.067Z,98292.17
2023-08-25T16:22:58.681Z,98291.13
2023-08-25T16:26:11.086Z,98292.80
2023-08-25T16:29:23.167Z,98287.36
2023-08-25T16:32:35.786Z,98286.82
2023-08-25T16:35:47.929Z,98284.38
2023-08-25T16:39:00.097Z,98296.73
2023-08-25T16:42:13.238Z,98293.73
2023-08-25T16:45:25.723Z,98295.68
2023-08-25T16:48:37.928Z,98299.78
2023-08-25T16:51:50.378Z,98304.48
2023-08-25T16:55:02.804Z,98299.28
2023-08-25T16:58:15.605Z,98310.81
2023-08-25T17:01:28.424Z,98299.31
2023-08-25T17:04:40.828Z,98301.73
2023-08-25T17:07:57.737Z,98300.64
2023-08-25T17:11:11.351Z,98305.02
2023-08-25T17:14:23.541Z,98305.84
2023-08-25T17:17:35.785Z,98318.69
2023-08-25T17:20:48.075Z,98313.50
2023-08-25T17:24:01.335Z,98315.41
2023-08-25T17:27:14.290Z,98313.48
2023-08-25T17:30:26.718Z,98326.60
2023-08-25T17:33:39.855Z,98314.57
2023-08-25T17:36:52.474Z,98315.34
2023-08-25T17:40:05.991Z,98317.22
2023-08-25T17:43:18.210Z,98319.40
2023-08-25T17:46:30.908Z,98313.08
2023-08-25T17:49:43.139Z,98314.18
2023-08-25T17:52:55.394Z,98310.58
2023-08-25T17:56:08.259Z,98319.84
2023-08-25T17:59:20.494Z,98309.70
2023-08-25T18:02:32.790Z,98304.75
2023-08-25T18:05:48.301Z,98309.03
2023-08-25T18:09:00.845Z,98311.19
2023-08-25T18:12:15.676Z,98309.53
2023-08-25T18:15:27.869Z,98305.69
2023-08-25T18:18:40.168Z,98308.67
2023-08-25T18:21:52.347Z,98314.63
2023-08-25T18:25:04.879Z,98313.22
2023-08-25T18:28:17.365Z,98314.27
2023-08-25T18:31:32.163Z,98321.28
2023-08-25T18:34:44.643Z,98317.89
2023-08-25T18:37:56.920Z,98326.55
2023-08-25T18:41:09.181Z,98323.71
2023-08-25T18:44:21.180Z,98335.66
2023-08-25T18:47:33.611Z,98332.89
2023-08-25T18:50:45.943Z,98327.91
2023-08-25T18:53:58.281Z,98321.06
2023-08-25T18:57:10.945Z,98333.27
2023-08-25T19:00:24.482Z,98326.08
2023-08-25T19:03:37.027Z,98322.48
2023-08-25T19:06:49.963Z,98321.85
2023-08-25T19:10:02.197Z,98325.86
2023-08-25T19:13:16.407Z,98325.79
2023-08-25T19:16:28.772Z,98329.00
2023-08-25T19:19:41.566Z,98330.58
2023-08-25T19:22:55.026Z,98330.51
2023-08-25T19:26:11.792Z,98331.91
2023-08-25T19:29:22.312Z,98327.78
2023-08-25T19:32:34.287Z,98332.92
2023-08-25T19:35:46.642Z,98330.38
2023-08-25T19:38:59.667Z,98337.41
2023-08-25T19:42:12.727Z,98339.48
2023-08-25T19:45:25.157Z,98335.05
2023-08-25T19:48:39.450Z,98328.46
2023-08-25T19:51:51.927Z,98337.63
2023-08-25T19:55:04.589Z,98337.31
2023-08-25T19:58:17.424Z,98334.20
2023-08-25T20:01:29.747Z,98330.91
2023-08-25T20:04:42.200Z,98328.13
2023-08-25T20:07:55.353Z,98335.63
2023-08-25T20:11:09.862Z,98340.01
2023-08-25T20:14:22.268Z,98335.56
2023-08-25T20:17:35.493Z,98330.77
2023-08-25T20:20:50.265Z,98326.11
2023-08-25T20:24:03.346Z,98326.36
2023-08-25T20:27:15.602Z,98337.46
2023-08-25T20:30:27.983Z,98339.34
2023-08-25T20:33:40.313Z,98338.20
2023-08-25T20:36:52.725Z,98339.83
2023-08-25T20:40:05.052Z,98342.55
2023-08-25T20:43:17.554Z,98344.12
2023-08-25T20:46:30.087Z,98341.72
2023-08-25T20:49:42.426Z,98339.00
2023-08-25T20:52:54.863Z,98340.66
2023-08-25T20:56:08.841Z,98340.24
2023-08-25T20:59:21.109Z,98340.73
2023-08-25T21:02:33.640Z,98350.86
2023-08-25T21:05:46.081Z,98358.17
2023-08-25T21:08:58.705Z,98355.23
2023-08-25T21:12:12.658Z,98355.13
2023-08-25T21:15:24.933Z,98358.34
2023-08-25T21:18:37.007Z,98368.51
2023-08-25T21:21:49.642Z,98356.06
2023-08-25T21:25:01.948Z,98356.44
2023-08-25T21:28:14.925Z,98356.11
2023-08-25T21:31:27.717Z,98363.17
2023-08-25T21:34:41.164Z,98379.13
2023-08-25T21:37:53.375Z,98379.83
2023-08-25T21:41:07.012Z,98392.23
2023-08-25T21:44:20.256Z,98384.20
2023-08-25T21:47:32.609Z,98372.94
2023-08-25T21:50:47.103Z,98377.05
2023-08-25T21:53:59.631Z,98374.57
2023-08-25T21:57:12.242Z,98368.80
2023-08-25T22:00:25.271Z,98376.81
2023-08-25T22:03:37.741Z,98367.98
2023-08-25T22:06:51.176Z,98371.04
2023-08-25T22:10:04.903Z,98371.63
2023-08-25T22:13:17.806Z,98372.70
2023-08-25T22:16:30.243Z,98367.73
2023-08-25T22:19:47.677Z,98375.04
2023-08-25T22:22:57.239Z,98378.48
2023-08-25T22:26:09.631Z,98384.50
2023-08-25T22:29:21.716Z,98386.13
2023-08-25T22:35:48.439Z,98397.81
2023-08-25T22:39:01.883Z,98395.34
2023-08-25T22:42:14.821Z,98389.20
2023-08-25T22:45:27.478Z,98393.78
2023-08-25T22:48:39.549Z,98392.50
2023-08-25T22:51:51.878Z,98397.92
2023-08-25T22:55:04.357Z,98392.98
2023-08-25T22:58:16.766Z,98388.73
2023-08-25T23:01:29.607Z,98385.09
2023-08-25T23:04:41.903Z,98384.36
2023-08-25T23:07:54.354Z,98380.48
2023-08-25T23:11:07.540Z,98377.38
2023-08-25T23:14:19.965Z,98368.30
2023-08-25T23:17:32.554Z,98357.34
2023-08-25T23:20:45.576Z,98352.38
2023-08-25T23:23:57.900Z,98350.75
2023-08-25T23:27:11.067Z,98358.55
2023-08-25T23:30:23.515Z,98351.02
2023-08-25T23:33:35.562Z,98357.84
2023-08-25T23:36:49.310Z,98346.16
2023-08-25T23:40:02.485Z,98335.92
2023-08-25T23:43:14.685Z,98326.33
2023-08-25T23:46:27.068Z,98338.73
2023-08-25T23:49:39.559Z,98323.97
2023-08-25T23:52:51.638Z,98325.64
2023-08-25T23:56:04.629Z,98341.06
2023-08-25T23:59:17.097Z,98338.94
